sensor_id;sensor_type;location;lat;lon;timestamp;P1;durP1;ratioP1;P2;durP2;ratioP2
13832;SDS011;6987;19.472;-99.276;2023-05-10T00:01:15;6.28;;;5.72;;
13832;SDS011;6987;19.472;-99.276;2023-05-10T00:03:45;6.85;;;6.25;;
13832;SDS011;6987;19.472;-99.276;2023-05-10T00:06:17;7.75;;;6.40;;
13832;SDS011;6987;19.472;-99.276;2023-05-10T00:08:45;7.53;;;6.78;;
13832;SDS011;6987;19.472;-99.276;2023-05-10T00:11:17;8.68;;;5.68;;
13832;SDS011;6987;19.472;-99.276;2023-05-10T00:13:46;7.00;;;5.82;;
13832;SDS011;6987;19.472;-99.276;2023-05-10T00:16:17;6.57;;;6.07;;
13832;SDS011;6987;19.472;-99.276;2023-05-10T00:18:46;6.88;;;6.13;;
13832;SDS011;6987;19.472;-99.276;2023-05-10T00:21:14;7.35;;;6.65;;
13832;SDS011;6987;19.472;-99.276;2023-05-10T00:23:43;8.65;;;7.10;;
13832;SDS011;6987;19.472;-99.276;2023-05-10T00:26:12;7.13;;;6.53;;
13832;SDS011;6987;19.472;-99.276;2023-05-10T00:28:42;7.38;;;6.78;;
13832;SDS011;6987;19.472;-99.276;2023-05-10T00:31:11;8.40;;;7.60;;
13832;SDS011;6987;19.472;-99.276;2023-05-10T00:33:42;7.40;;;6.90;;
13832;SDS011;6987;19.472;-99.276;2023-05-10T00:36:11;11.80;;;6.85;;
13832;SDS011;6987;19.472;-99.276;2023-05-10T00:38:39;8.00;;;7.35;;
13832;SDS011;6987;19.472;-99.276;2023-05-10T00:41:08;8.02;;;7.10;;
13832;SDS011;6987;19.472;-99.276;2023-05-10T00:43:37;8.65;;;7.68;;
13832;SDS011;6987;19.472;-99.276;2023-05-10T00:46:06;8.23;;;7.40;;
13832;SDS011;6987;19.472;-99.276;2023-05-10T00:48:36;8.82;;;7.90;;
13832;SDS011;6987;19.472;-99.276;2023-05-10T00:51:07;8.18;;;7.07;;
13832;SDS011;6987;19.472;-99.276;2023-05-10T00:53:36;8.05;;;7.25;;
13832;SDS011;6987;19.472;-99.276;2023-05-10T00:56:05;6.85;;;6.18;;
13832;SDS011;6987;19.472;-99.276;2023-05-10T00:58:34;7.68;;;7.07;;
13832;SDS011;6987;19.472;-99.276;2023-05-10T01:01:04;7.25;;;6.75;;
13832;SDS011;6987;19.472;-99.276;2023-05-10T01:03:36;7.68;;;7.13;;
13832;SDS011;6987;19.472;-99.276;2023-05-10T01:06:07;9.88;;;8.35;;
13832;SDS011;6987;19.472;-99.276;2023-05-10T01:08:37;6.93;;;6.35;;
13832;SDS011;6987;19.472;-99.276;2023-05-10T01:11:06;7.88;;;7.20;;
13832;SDS011;6987;19.472;-99.276;2023-05-10T01:13:36;8.25;;;7.07;;
13832;SDS011;6987;19.472;-99.276;2023-05-10T01:16:06;8.23;;;7.53;;
13832;SDS011;6987;19.472;-99.276;2023-05-10T01:18:40;8.85;;;8.05;;
13832;SDS011;6987;19.472;-99.276;2023-05-10T01:21:14;9.98;;;7.57;;
13832;SDS011;6987;19.472;-99.276;2023-05-10T01:23:56;7.90;;;7.18;;
13832;SDS011;6987;19.472;-99.276;2023-05-10T01:32:26;7.35;;;6.75;;
13832;SDS011;6987;19.472;-99.276;2023-05-10T01:34:59;8.05;;;7.25;;
13832;SDS011;6987;19.472;-99.276;2023-05-10T01:37:31;8.13;;;7.32;;
13832;SDS011;6987;19.472;-99.276;2023-05-10T01:40:05;7.40;;;6.75;;
13832;SDS011;6987;19.472;-99.276;2023-05-10T01:42:37;7.13;;;6.63;;
13832;SDS011;6987;19.472;-99.276;2023-05-10T01:45:11;8.18;;;7.30;;
13832;SDS011;6987;19.472;-99.276;2023-05-10T01:47:46;7.82;;;7.13;;
13832;SDS011;6987;19.472;-99.276;2023-05-10T01:50:17;8.45;;;7.78;;
13832;SDS011;6987;19.472;-99.276;2023-05-10T01:52:47;7.75;;;7.10;;
13832;SDS011;6987;19.472;-99.276;2023-05-10T01:55:18;8.43;;;7.72;;
13832;SDS011;6987;19.472;-99.276;2023-05-10T01:57:50;8.45;;;7.38;;
13832;SDS011;6987;19.472;-99.276;2023-05-10T02:00:19;8.70;;;7.97;;
13832;SDS011;6987;19.472;-99.276;2023-05-10T02:02:50;11.43;;;10.18;;
13832;SDS011;6987;19.472;-99.276;2023-05-10T02:05:20;9.63;;;8.75;;
13832;SDS011;6987;19.472;-99.276;2023-05-10T02:07:50;9.13;;;8.27;;
13832;SDS011;6987;19.472;-99.276;2023-05-10T02:10:20;10.82;;;9.82;;
13832;SDS011;6987;19.472;-99.276;2023-05-10T02:12:49;15.07;;;13.07;;
13832;SDS011;6987;19.472;-99.276;2023-05-10T02:15:20;13.45;;;10.75;;
13832;SDS011;6987;19.472;-99.276;2023-05-10T02:17:53;12.00;;;10.93;;
13832;SDS011;6987;19.472;-99.276;2023-05-10T02:20:23;10.13;;;9.25;;
13832;SDS011;6987;19.472;-99.276;2023-05-10T02:22:52;10.52;;;9.43;;
13832;SDS011;6987;19.472;-99.276;2023-05-10T02:25:23;12.57;;;9.77;;
13832;SDS011;6987;19.472;-99.276;2023-05-10T02:27:53;10.05;;;9.05;;
13832;SDS011;6987;19.472;-99.276;2023-05-10T02:30:23;11.40;;;9.07;;
13832;SDS011;6987;19.472;-99.276;2023-05-10T02:32:53;14.27;;;10.75;;
13832;SDS011;6987;19.472;-99.276;2023-05-10T02:35:23;11.85;;;10.40;;
13832;SDS011;6987;19.472;-99.276;2023-05-10T02:37:52;12.52;;;11.32;;
13832;SDS011;6987;19.472;-99.276;2023-05-10T02:40:22;12.45;;;10.05;;
13832;SDS011;6987;19.472;-99.276;2023-05-10T02:42:52;12.18;;;10.27;;
13832;SDS011;6987;19.472;-99.276;2023-05-10T02:45:23;11.85;;;9.85;;
13832;SDS011;6987;19.472;-99.276;2023-05-10T02:47:55;11.98;;;10.65;;
13832;SDS011;6987;19.472;-99.276;2023-05-10T02:50:25;12.40;;;10.23;;
13832;SDS011;6987;19.472;-99.276;2023-05-10T02:52:56;14.43;;;10.43;;
13832;SDS011;6987;19.472;-99.276;2023-05-10T02:55:30;10.75;;;9.63;;
13832;SDS011;6987;19.472;-99.276;2023-05-10T02:58:00;10.48;;;9.23;;
13832;SDS011;6987;19.472;-99.276;2023-05-10T03:00:30;11.70;;;9.60;;
13832;SDS011;6987;19.472;-99.276;2023-05-10T03:03:01;11.05;;;9.90;;
13832;SDS011;6987;19.472;-99.276;2023-05-10T03:05:30;10.10;;;9.15;;
13832;SDS011;6987;19.472;-99.276;2023-05-10T03:07:59;11.80;;;9.77;;
13832;SDS011;6987;19.472;-99.276;2023-05-10T03:10:29;12.18;;;9.77;;
13832;SDS011;6987;19.472;-99.276;2023-05-10T03:13:06;12.90;;;9.23;;
13832;SDS011;6987;19.472;-99.276;2023-05-10T03:15:37;11.50;;;10.18;;
13832;SDS011;6987;19.472;-99.276;2023-05-10T03:18:12;11.27;;;10.18;;
13832;SDS011;6987;19.472;-99.276;2023-05-10T03:20:42;11.45;;;10.25;;
13832;SDS011;6987;19.472;-99.276;2023-05-10T03:23:12;12.10;;;9.63;;
13832;SDS011;6987;19.472;-99.276;2023-05-10T03:25:42;11.85;;;9.55;;
13832;SDS011;6987;19.472;-99.276;2023-05-10T03:28:11;10.10;;;9.15;;
13832;SDS011;6987;19.472;-99.276;2023-05-10T03:30:40;12.63;;;9.68;;
13832;SDS011;6987;19.472;-99.276;2023-05-10T03:33:12;10.35;;;9.35;;
13832;SDS011;6987;19.472;-99.276;2023-05-10T03:35:41;10.15;;;9.13;;
13832;SDS011;6987;19.472;-99.276;2023-05-10T03:38:11;12.70;;;10.15;;
13832;SDS011;6987;19.472;-99.276;2023-05-10T03:40:40;10.15;;;9.18;;
13832;SDS011;6987;19.472;-99.276;2023-05-10T03:43:10;10.98;;;9.15;;
13832;SDS011;6987;19.472;-99.276;2023-05-10T03:45:39;11.18;;;9.25;;
13832;SDS011;6987;19.472;-99.276;2023-05-10T03:48:07;10.75;;;8.98;;
13832;SDS011;6987;19.472;-99.276;2023-05-10T03:50:38;12.48;;;9.95;;
13832;SDS011;6987;19.472;-99.276;2023-05-10T03:53:08;14.07;;;9.10;;
13832;SDS011;6987;19.472;-99.276;2023-05-10T03:55:38;9.20;;;8.30;;
13832;SDS011;6987;19.472;-99.276;2023-05-10T03:58:07;11.02;;;8.77;;
13832;SDS011;6987;19.472;-99.276;2023-05-10T04:00:39;10.60;;;9.50;;
13832;SDS011;6987;19.472;-99.276;2023-05-10T04:03:10;10.70;;;8.82;;
13832;SDS011;6987;19.472;-99.276;2023-05-10T04:05:41;9.75;;;8.77;;
13832;SDS011;6987;19.472;-99.276;2023-05-10T04:08:10;12.88;;;9.73;;
13832;SDS011;6987;19.472;-99.276;2023-05-10T04:10:40;9.55;;;8.65;;
13832;SDS011;6987;19.472;-99.276;2023-05-10T04:13:09;9.38;;;8.38;;
13832;SDS011;6987;19.472;-99.276;2023-05-10T04:15:38;10.32;;;8.15;;
13832;SDS011;6987;19.472;-99.276;2023-05-10T04:18:07;11.55;;;8.93;;
13832;SDS011;6987;19.472;-99.276;2023-05-10T04:20:36;15.43;;;9.50;;
13832;SDS011;6987;19.472;-99.276;2023-05-10T04:23:06;9.70;;;8.35;;
13832;SDS011;6987;19.472;-99.276;2023-05-10T04:25:35;10.77;;;9.40;;
13832;SDS011;6987;19.472;-99.276;2023-05-10T04:28:04;12.55;;;8.98;;
13832;SDS011;6987;19.472;-99.276;2023-05-10T04:30:33;10.68;;;9.52;;
13832;SDS011;6987;19.472;-99.276;2023-05-10T04:33:02;9.35;;;8.52;;
13832;SDS011;6987;19.472;-99.276;2023-05-10T04:35:31;9.70;;;8.48;;
13832;SDS011;6987;19.472;-99.276;2023-05-10T04:38:00;12.65;;;8.80;;
13832;SDS011;6987;19.472;-99.276;2023-05-10T04:40:31;9.68;;;8.77;;
13832;SDS011;6987;19.472;-99.276;2023-05-10T04:43:01;9.40;;;8.60;;
13832;SDS011;6987;19.472;-99.276;2023-05-10T04:45:31;8.68;;;8.02;;
13832;SDS011;6987;19.472;-99.276;2023-05-10T04:48:00;9.15;;;8.20;;
13832;SDS011;6987;19.472;-99.276;2023-05-10T04:50:29;9.77;;;8.80;;
13832;SDS011;6987;19.472;-99.276;2023-05-10T04:52:58;10.00;;;9.00;;
13832;SDS011;6987;19.472;-99.276;2023-05-10T04:55:27;11.10;;;8.45;;
13832;SDS011;6987;19.472;-99.276;2023-05-10T04:57:58;10.00;;;9.20;;
13832;SDS011;6987;19.472;-99.276;2023-05-10T05:00:28;12.13;;;9.40;;
13832;SDS011;6987;19.472;-99.276;2023-05-10T05:02:57;13.63;;;9.13;;
13832;SDS011;6987;19.472;-99.276;2023-05-10T05:05:27;10.13;;;9.10;;
13832;SDS011;6987;19.472;-99.276;2023-05-10T05:07:55;10.77;;;9.55;;
13832;SDS011;6987;19.472;-99.276;2023-05-10T05:10:25;10.85;;;9.50;;
13832;SDS011;6987;19.472;-99.276;2023-05-10T05:12:55;11.43;;;9.80;;
13832;SDS011;6987;19.472;-99.276;2023-05-10T05:15:26;11.05;;;9.95;;
13832;SDS011;6987;19.472;-99.276;2023-05-10T05:17:56;10.07;;;9.07;;
13832;SDS011;6987;19.472;-99.276;2023-05-10T05:20:25;13.27;;;9.80;;
13832;SDS011;6987;19.472;-99.276;2023-05-10T05:22:53;9.27;;;8.38;;
13832;SDS011;6987;19.472;-99.276;2023-05-10T05:25:22;9.90;;;9.00;;
13832;SDS011;6987;19.472;-99.276;2023-05-10T05:27:51;14.02;;;10.05;;
13832;SDS011;6987;19.472;-99.276;2023-05-10T05:30:20;15.23;;;9.50;;
13832;SDS011;6987;19.472;-99.276;2023-05-10T05:32:51;9.80;;;8.80;;
13832;SDS011;6987;19.472;-99.276;2023-05-10T05:35:20;10.07;;;8.63;;
13832;SDS011;6987;19.472;-99.276;2023-05-10T05:37:49;11.98;;;9.35;;
13832;SDS011;6987;19.472;-99.276;2023-05-10T05:40:18;11.50;;;9.57;;
13832;SDS011;6987;19.472;-99.276;2023-05-10T05:42:47;10.10;;;9.35;;
13832;SDS011;6987;19.472;-99.276;2023-05-10T05:45:17;10.40;;;9.35;;
13832;SDS011;6987;19.472;-99.276;2023-05-10T05:47:46;10.13;;;9.13;;
13832;SDS011;6987;19.472;-99.276;2023-05-10T05:50:17;9.65;;;8.80;;
13832;SDS011;6987;19.472;-99.276;2023-05-10T05:52:46;10.68;;;9.55;;
13832;SDS011;6987;19.472;-99.276;2023-05-10T05:55:15;9.85;;;8.95;;
13832;SDS011;6987;19.472;-99.276;2023-05-10T05:57:44;9.48;;;8.68;;
13832;SDS011;6987;19.472;-99.276;2023-05-10T06:00:13;10.10;;;9.13;;
13832;SDS011;6987;19.472;-99.276;2023-05-10T06:02:42;10.05;;;8.77;;
13832;SDS011;6987;19.472;-99.276;2023-05-10T06:05:11;11.50;;;9.88;;
13832;SDS011;6987;19.472;-99.276;2023-05-10T06:07:42;11.52;;;10.40;;
13832;SDS011;6987;19.472;-99.276;2023-05-10T06:10:11;9.93;;;9.05;;
13832;SDS011;6987;19.472;-99.276;2023-05-10T06:12:41;10.40;;;9.50;;
13832;SDS011;6987;19.472;-99.276;2023-05-10T06:15:10;11.30;;;9.68;;
13832;SDS011;6987;19.472;-99.276;2023-05-10T06:17:39;9.93;;;9.00;;
13832;SDS011;6987;19.472;-99.276;2023-05-10T06:20:10;10.60;;;9.52;;
13832;SDS011;6987;19.472;-99.276;2023-05-10T06:22:39;12.82;;;10.75;;
13832;SDS011;6987;19.472;-99.276;2023-05-10T06:25:10;11.80;;;10.73;;
13832;SDS011;6987;19.472;-99.276;2023-05-10T06:27:40;13.38;;;10.20;;
13832;SDS011;6987;19.472;-99.276;2023-05-10T06:30:09;13.40;;;10.43;;
13832;SDS011;6987;19.472;-99.276;2023-05-10T06:32:40;9.85;;;8.88;;
13832;SDS011;6987;19.472;-99.276;2023-05-10T06:35:10;11.65;;;10.45;;
13832;SDS011;6987;19.472;-99.276;2023-05-10T06:37:40;11.10;;;10.05;;
13832;SDS011;6987;19.472;-99.276;2023-05-10T06:40:14;12.95;;;9.82;;
13832;SDS011;6987;19.472;-99.276;2023-05-10T06:42:43;11.75;;;10.65;;
13832;SDS011;6987;19.472;-99.276;2023-05-10T06:45:12;12.45;;;11.20;;
13832;SDS011;6987;19.472;-99.276;2023-05-10T06:47:42;14.80;;;10.77;;
13832;SDS011;6987;19.472;-99.276;2023-05-10T06:50:11;13.13;;;11.45;;
13832;SDS011;6987;19.472;-99.276;2023-05-10T06:52:40;12.65;;;11.45;;
13832;SDS011;6987;19.472;-99.276;2023-05-10T06:55:09;17.42;;;11.65;;
13832;SDS011;6987;19.472;-99.276;2023-05-10T06:57:41;14.32;;;11.55;;
13832;SDS011;6987;19.472;-99.276;2023-05-10T07:00:10;12.30;;;10.90;;
13832;SDS011;6987;19.472;-99.276;2023-05-10T07:02:39;13.35;;;11.90;;
13832;SDS011;6987;19.472;-99.276;2023-05-10T07:05:09;15.82;;;11.27;;
13832;SDS011;6987;19.472;-99.276;2023-05-10T07:07:38;12.15;;;10.98;;
13832;SDS011;6987;19.472;-99.276;2023-05-10T07:10:07;12.68;;;11.20;;
13832;SDS011;6987;19.472;-99.276;2023-05-10T07:12:36;13.10;;;11.73;;
13832;SDS011;6987;19.472;-99.276;2023-05-10T07:15:09;12.23;;;11.07;;
13832;SDS011;6987;19.472;-99.276;2023-05-10T07:17:38;15.38;;;11.43;;
13832;SDS011;6987;19.472;-99.276;2023-05-10T07:20:07;13.32;;;11.68;;
13832;SDS011;6987;19.472;-99.276;2023-05-10T07:22:36;11.63;;;10.55;;
13832;SDS011;6987;19.472;-99.276;2023-05-10T07:25:05;13.32;;;12.02;;
13832;SDS011;6987;19.472;-99.276;2023-05-10T07:27:34;14.25;;;11.50;;
13832;SDS011;6987;19.472;-99.276;2023-05-10T07:30:04;14.90;;;11.88;;
13832;SDS011;6987;19.472;-99.276;2023-05-10T07:32:35;15.05;;;11.65;;
13832;SDS011;6987;19.472;-99.276;2023-05-10T07:35:05;12.73;;;11.35;;
13832;SDS011;6987;19.472;-99.276;2023-05-10T07:37:34;12.70;;;11.38;;
13832;SDS011;6987;19.472;-99.276;2023-05-10T07:40:03;12.95;;;11.65;;
13832;SDS011;6987;19.472;-99.276;2023-05-10T07:42:32;15.95;;;11.38;;
13832;SDS011;6987;19.472;-99.276;2023-05-10T07:45:01;14.13;;;12.73;;
13832;SDS011;6987;19.472;-99.276;2023-05-10T07:47:30;13.15;;;11.63;;
13832;SDS011;6987;19.472;-99.276;2023-05-10T07:50:01;13.82;;;11.60;;
13832;SDS011;6987;19.472;-99.276;2023-05-10T07:52:30;13.05;;;11.82;;
13832;SDS011;6987;19.472;-99.276;2023-05-10T07:55:00;13.63;;;12.32;;
13832;SDS011;6987;19.472;-99.276;2023-05-10T07:57:28;13.50;;;12.27;;
13832;SDS011;6987;19.472;-99.276;2023-05-10T07:59:58;12.73;;;11.43;;
13832;SDS011;6987;19.472;-99.276;2023-05-10T08:02:27;15.70;;;12.38;;
13832;SDS011;6987;19.472;-99.276;2023-05-10T08:04:56;14.50;;;11.93;;
13832;SDS011;6987;19.472;-99.276;2023-05-10T08:07:27;13.93;;;12.32;;
13832;SDS011;6987;19.472;-99.276;2023-05-10T08:09:56;14.85;;;13.27;;
13832;SDS011;6987;19.472;-99.276;2023-05-10T08:12:25;14.90;;;12.77;;
13832;SDS011;6987;19.472;-99.276;2023-05-10T08:14:54;15.18;;;12.55;;
13832;SDS011;6987;19.472;-99.276;2023-05-10T08:17:23;13.52;;;12.32;;
13832;SDS011;6987;19.472;-99.276;2023-05-10T08:19:52;13.13;;;11.93;;
13832;SDS011;6987;19.472;-99.276;2023-05-10T08:22:22;13.82;;;12.40;;
13832;SDS011;6987;19.472;-99.276;2023-05-10T08:24:53;12.98;;;11.75;;
13832;SDS011;6987;19.472;-99.276;2023-05-10T08:27:23;14.27;;;12.88;;
13832;SDS011;6987;19.472;-99.276;2023-05-10T08:29:51;14.32;;;12.82;;
13832;SDS011;6987;19.472;-99.276;2023-05-10T08:32:20;16.67;;;12.85;;
13832;SDS011;6987;19.472;-99.276;2023-05-10T08:34:49;13.90;;;12.38;;
13832;SDS011;6987;19.472;-99.276;2023-05-10T08:37:18;16.08;;;13.68;;
13832;SDS011;6987;19.472;-99.276;2023-05-10T08:39:47;18.90;;;13.95;;
13832;SDS011;6987;19.472;-99.276;2023-05-10T08:42:19;15.70;;;13.90;;
13832;SDS011;6987;19.472;-99.276;2023-05-10T08:44:48;14.85;;;13.35;;
13832;SDS011;6987;19.472;-99.276;2023-05-10T08:47:18;16.27;;;13.77;;
13832;SDS011;6987;19.472;-99.276;2023-05-10T08:49:47;15.73;;;13.07;;
13832;SDS011;6987;19.472;-99.276;2023-05-10T08:52:17;14.85;;;13.43;;
13832;SDS011;6987;19.472;-99.276;2023-05-10T08:54:46;16.75;;;13.82;;
13832;SDS011;6987;19.472;-99.276;2023-05-10T08:57:15;14.48;;;12.98;;
13832;SDS011;6987;19.472;-99.276;2023-05-10T08:59:45;16.48;;;13.30;;
13832;SDS011;6987;19.472;-99.276;2023-05-10T09:02:15;14.13;;;12.57;;
13832;SDS011;6987;19.472;-99.276;2023-05-10T09:04:45;15.18;;;13.40;;
13832;SDS011;6987;19.472;-99.276;2023-05-10T09:07:14;15.50;;;13.55;;
13832;SDS011;6987;19.472;-99.276;2023-05-10T09:09:43;14.93;;;12.73;;
13832;SDS011;6987;19.472;-99.276;2023-05-10T09:12:12;16.30;;;14.30;;
13832;SDS011;6987;19.472;-99.276;2023-05-10T09:14:42;18.02;;;13.85;;
13832;SDS011;6987;19.472;-99.276;2023-05-10T09:17:14;14.25;;;12.82;;
13832;SDS011;6987;19.472;-99.276;2023-05-10T09:19:44;16.88;;;13.63;;
13832;SDS011;6987;19.472;-99.276;2023-05-10T09:22:13;14.48;;;12.98;;
13832;SDS011;6987;19.472;-99.276;2023-05-10T09:24:43;16.33;;;14.63;;
13832;SDS011;6987;19.472;-99.276;2023-05-10T09:27:13;15.82;;;12.85;;
13832;SDS011;6987;19.472;-99.276;2023-05-10T09:29:42;14.82;;;13.25;;
13832;SDS011;6987;19.472;-99.276;2023-05-10T09:32:11;14.52;;;12.85;;
13832;SDS011;6987;19.472;-99.276;2023-05-10T09:34:42;16.20;;;12.93;;
13832;SDS011;6987;19.472;-99.276;2023-05-10T09:37:12;14.38;;;12.93;;
13832;SDS011;6987;19.472;-99.276;2023-05-10T09:39:41;14.50;;;13.15;;
13832;SDS011;6987;19.472;-99.276;2023-05-10T09:42:10;15.85;;;14.13;;
13832;SDS011;6987;19.472;-99.276;2023-05-10T09:44:40;16.80;;;14.43;;
13832;SDS011;6987;19.472;-99.276;2023-05-10T09:47:09;14.43;;;13.02;;
13832;SDS011;6987;19.472;-99.276;2023-05-10T09:49:38;14.95;;;13.25;;
13832;SDS011;6987;19.472;-99.276;2023-05-10T09:52:09;14.00;;;12.60;;
13832;SDS011;6987;19.472;-99.276;2023-05-10T09:54:42;16.02;;;13.20;;
13832;SDS011;6987;19.472;-99.276;2023-05-10T09:57:18;17.63;;;13.63;;
13832;SDS011;6987;19.472;-99.276;2023-05-10T09:59:47;14.60;;;13.13;;
13832;SDS011;6987;19.472;-99.276;2023-05-10T10:02:19;14.88;;;13.38;;
13832;SDS011;6987;19.472;-99.276;2023-05-10T10:04:49;17.95;;;13.52;;
13832;SDS011;6987;19.472;-99.276;2023-05-10T10:07:24;17.50;;;14.15;;
13832;SDS011;6987;19.472;-99.276;2023-05-10T10:09:53;15.10;;;13.10;;
13832;SDS011;6987;19.472;-99.276;2023-05-10T10:12:23;16.10;;;12.70;;
13832;SDS011;6987;19.472;-99.276;2023-05-10T10:14:52;17.48;;;14.35;;
13832;SDS011;6987;19.472;-99.276;2023-05-10T10:17:22;17.80;;;13.85;;
13832;SDS011;6987;19.472;-99.276;2023-05-10T10:19:52;14.43;;;12.93;;
13832;SDS011;6987;19.472;-99.276;2023-05-10T10:22:23;18.33;;;14.00;;
13832;SDS011;6987;19.472;-99.276;2023-05-10T10:24:52;15.70;;;14.20;;
13832;SDS011;6987;19.472;-99.276;2023-05-10T10:27:23;15.07;;;13.60;;
13832;SDS011;6987;19.472;-99.276;2023-05-10T10:29:58;24.50;;;13.77;;
13832;SDS011;6987;19.472;-99.276;2023-05-10T10:32:30;17.05;;;13.65;;
13832;SDS011;6987;19.472;-99.276;2023-05-10T10:35:02;15.88;;;14.18;;
13832;SDS011;6987;19.472;-99.276;2023-05-10T10:37:44;15.30;;;13.50;;
13832;SDS011;6987;19.472;-99.276;2023-05-10T10:43:20;15.30;;;13.70;;
13832;SDS011;6987;19.472;-99.276;2023-05-10T10:48:40;16.10;;;14.40;;
13832;SDS011;6987;19.472;-99.276;2023-05-10T10:51:09;16.42;;;14.00;;
13832;SDS011;6987;19.472;-99.276;2023-05-10T10:53:40;16.73;;;14.00;;
13832;SDS011;6987;19.472;-99.276;2023-05-10T10:56:09;17.35;;;13.63;;
13832;SDS011;6987;19.472;-99.276;2023-05-10T10:58:40;18.52;;;14.35;;
13832;SDS011;6987;19.472;-99.276;2023-05-10T11:01:10;15.82;;;13.20;;
13832;SDS011;6987;19.472;-99.276;2023-05-10T11:03:40;13.82;;;12.45;;
13832;SDS011;6987;19.472;-99.276;2023-05-10T11:06:09;16.90;;;14.30;;
13832;SDS011;6987;19.472;-99.276;2023-05-10T11:08:43;15.82;;;14.02;;
13832;SDS011;6987;19.472;-99.276;2023-05-10T11:11:14;14.98;;;13.48;;
13832;SDS011;6987;19.472;-99.276;2023-05-10T11:13:43;14.57;;;12.98;;
13832;SDS011;6987;19.472;-99.276;2023-05-10T11:16:17;16.60;;;13.30;;
13832;SDS011;6987;19.472;-99.276;2023-05-10T11:18:53;17.13;;;14.63;;
13832;SDS011;6987;19.472;-99.276;2023-05-10T11:21:22;21.92;;;14.07;;
13832;SDS011;6987;19.472;-99.276;2023-05-10T11:23:54;18.75;;;13.95;;
13832;SDS011;6987;19.472;-99.276;2023-05-10T11:26:23;14.40;;;13.15;;
13832;SDS011;6987;19.472;-99.276;2023-05-10T11:28:53;15.18;;;13.57;;
13832;SDS011;6987;19.472;-99.276;2023-05-10T11:31:26;16.33;;;13.80;;
13832;SDS011;6987;19.472;-99.276;2023-05-10T11:33:55;16.77;;;13.68;;
13832;SDS011;6987;19.472;-99.276;2023-05-10T11:36:25;16.77;;;15.18;;
13832;SDS011;6987;19.472;-99.276;2023-05-10T11:38:56;18.33;;;15.65;;
13832;SDS011;6987;19.472;-99.276;2023-05-10T11:41:25;17.33;;;14.90;;
13832;SDS011;6987;19.472;-99.276;2023-05-10T11:43:55;18.50;;;15.57;;
13832;SDS011;6987;19.472;-99.276;2023-05-10T11:46:26;17.30;;;14.55;;
13832;SDS011;6987;19.472;-99.276;2023-05-10T11:48:57;20.05;;;14.88;;
13832;SDS011;6987;19.472;-99.276;2023-05-10T11:51:27;18.38;;;14.10;;
13832;SDS011;6987;19.472;-99.276;2023-05-10T11:53:58;22.15;;;14.80;;
13832;SDS011;6987;19.472;-99.276;2023-05-10T11:56:27;15.85;;;14.13;;
13832;SDS011;6987;19.472;-99.276;2023-05-10T11:58:56;19.95;;;14.40;;
13832;SDS011;6987;19.472;-99.276;2023-05-10T12:01:27;16.88;;;14.77;;
13832;SDS011;6987;19.472;-99.276;2023-05-10T12:03:57;17.25;;;14.75;;
13832;SDS011;6987;19.472;-99.276;2023-05-10T12:06:26;18.80;;;14.90;;
13832;SDS011;6987;19.472;-99.276;2023-05-10T12:08:59;18.55;;;14.85;;
13832;SDS011;6987;19.472;-99.276;2023-05-10T12:11:29;26.52;;;14.88;;
13832;SDS011;6987;19.472;-99.276;2023-05-10T12:13:58;17.60;;;14.52;;
13832;SDS011;6987;19.472;-99.276;2023-05-10T12:16:28;22.55;;;14.45;;
13832;SDS011;6987;19.472;-99.276;2023-05-10T12:18:57;17.33;;;14.98;;
13832;SDS011;6987;19.472;-99.276;2023-05-10T12:21:27;18.98;;;14.88;;
13832;SDS011;6987;19.472;-99.276;2023-05-10T12:24:01;18.33;;;13.95;;
13832;SDS011;6987;19.472;-99.276;2023-05-10T12:26:30;18.08;;;15.35;;
13832;SDS011;6987;19.472;-99.276;2023-05-10T12:29:12;18.50;;;15.68;;
13832;SDS011;6987;19.472;-99.276;2023-05-10T12:31:51;18.85;;;15.40;;
13832;SDS011;6987;19.472;-99.276;2023-05-10T12:34:29;19.88;;;15.98;;
13832;SDS011;6987;19.472;-99.276;2023-05-10T12:36:58;22.40;;;15.88;;
13832;SDS011;6987;19.472;-99.276;2023-05-10T12:39:39;19.45;;;15.45;;
13832;SDS011;6987;19.472;-99.276;2023-05-10T12:42:08;16.58;;;14.98;;
13832;SDS011;6987;19.472;-99.276;2023-05-10T12:44:38;22.90;;;14.70;;
13832;SDS011;6987;19.472;-99.276;2023-05-10T12:47:07;18.42;;;16.33;;
13832;SDS011;6987;19.472;-99.276;2023-05-10T12:49:36;26.75;;;16.42;;
13832;SDS011;6987;19.472;-99.276;2023-05-10T12:52:05;22.80;;;15.80;;
13832;SDS011;6987;19.472;-99.276;2023-05-10T12:54:34;17.85;;;15.23;;
13832;SDS011;6987;19.472;-99.276;2023-05-10T12:57:05;19.17;;;15.25;;
13832;SDS011;6987;19.472;-99.276;2023-05-10T12:59:34;22.77;;;15.38;;
13832;SDS011;6987;19.472;-99.276;2023-05-10T13:02:03;17.88;;;15.55;;
13832;SDS011;6987;19.472;-99.276;2023-05-10T13:04:32;19.08;;;15.82;;
13832;SDS011;6987;19.472;-99.276;2023-05-10T13:07:03;17.13;;;14.88;;
13832;SDS011;6987;19.472;-99.276;2023-05-10T13:09:32;19.80;;;15.27;;
13832;SDS011;6987;19.472;-99.276;2023-05-10T13:12:01;18.00;;;15.27;;
13832;SDS011;6987;19.472;-99.276;2023-05-10T13:14:32;18.27;;;15.15;;
13832;SDS011;6987;19.472;-99.276;2023-05-10T13:17:02;19.40;;;16.67;;
13832;SDS011;6987;19.472;-99.276;2023-05-10T13:19:30;24.80;;;16.63;;
13832;SDS011;6987;19.472;-99.276;2023-05-10T13:22:00;25.15;;;17.35;;
13832;SDS011;6987;19.472;-99.276;2023-05-10T13:24:29;23.98;;;16.38;;
13832;SDS011;6987;19.472;-99.276;2023-05-10T13:26:58;21.52;;;16.75;;
13832;SDS011;6987;19.472;-99.276;2023-05-10T13:29:28;20.70;;;16.20;;
13832;SDS011;6987;19.472;-99.276;2023-05-10T13:31:59;24.17;;;17.00;;
13832;SDS011;6987;19.472;-99.276;2023-05-10T13:34:28;22.30;;;16.92;;
13832;SDS011;6987;19.472;-99.276;2023-05-10T13:36:57;27.35;;;19.27;;
13832;SDS011;6987;19.472;-99.276;2023-05-10T13:39:26;21.30;;;17.92;;
13832;SDS011;6987;19.472;-99.276;2023-05-10T13:41:59;22.33;;;18.83;;
13832;SDS011;6987;19.472;-99.276;2023-05-10T13:44:29;23.65;;;17.63;;
13832;SDS011;6987;19.472;-99.276;2023-05-10T13:47:01;20.60;;;17.67;;
13832;SDS011;6987;19.472;-99.276;2023-05-10T13:49:30;21.65;;;19.35;;
13832;SDS011;6987;19.472;-99.276;2023-05-10T13:51:59;25.77;;;20.15;;
13832;SDS011;6987;19.472;-99.276;2023-05-10T13:54:32;24.55;;;19.20;;
13832;SDS011;6987;19.472;-99.276;2023-05-10T13:57:02;28.58;;;20.42;;
13832;SDS011;6987;19.472;-99.276;2023-05-10T13:59:32;26.08;;;20.42;;
13832;SDS011;6987;19.472;-99.276;2023-05-10T14:02:02;26.85;;;20.52;;
13832;SDS011;6987;19.472;-99.276;2023-05-10T14:04:31;28.98;;;21.25;;
13832;SDS011;6987;19.472;-99.276;2023-05-10T14:07:01;23.80;;;20.63;;
13832;SDS011;6987;19.472;-99.276;2023-05-10T14:09:30;29.85;;;21.90;;
13832;SDS011;6987;19.472;-99.276;2023-05-10T14:11:59;26.75;;;21.17;;
13832;SDS011;6987;19.472;-99.276;2023-05-10T14:14:28;22.17;;;19.95;;
13832;SDS011;6987;19.472;-99.276;2023-05-10T14:16:57;23.92;;;20.08;;
13832;SDS011;6987;19.472;-99.276;2023-05-10T14:19:28;25.42;;;19.73;;
13832;SDS011;6987;19.472;-99.276;2023-05-10T14:21:58;21.35;;;18.25;;
13832;SDS011;6987;19.472;-99.276;2023-05-10T14:24:27;23.15;;;19.55;;
13832;SDS011;6987;19.472;-99.276;2023-05-10T14:26:56;26.23;;;19.70;;
13832;SDS011;6987;19.472;-99.276;2023-05-10T14:29:25;29.38;;;21.85;;
13832;SDS011;6987;19.472;-99.276;2023-05-10T14:31:54;27.25;;;20.17;;
13832;SDS011;6987;19.472;-99.276;2023-05-10T14:34:23;27.70;;;21.70;;
13832;SDS011;6987;19.472;-99.276;2023-05-10T14:36:53;25.90;;;23.00;;
13832;SDS011;6987;19.472;-99.276;2023-05-10T14:39:23;26.27;;;21.83;;
13832;SDS011;6987;19.472;-99.276;2023-05-10T14:41:55;30.25;;;24.48;;
13832;SDS011;6987;19.472;-99.276;2023-05-10T14:44:24;33.88;;;24.58;;